Time;durP1;ratioP1;P1;durP2;ratioP2;P2;SDS_P1;SDS_P2;PMS_P1;PMS_P2;Temp;Humidity;BMP_temperature;BMP_pressure;BME280_temperature;BME280_humidity;BME280_pressure;Samples;Min_cycle;Max_cycle;Signal;HPM_P1;HPM_P2
2024/02/29 00:00:09;;;;;;;25.90;19.10;;;5.60;99.90;;;;;;5060630;28;20522;-80
2024/02/29 00:02:38;;;;;;;26.23;18.63;;;5.60;99.90;;;;;;5055032;28;20803;-81
2024/02/29 00:05:09;;;;;;;33.47;19.20;;;5.60;99.90;;;;;;5058761;28;20467;-81
2024/02/29 00:07:37;;;;;;;24.00;17.60;;;5.60;99.90;;;;;;5058005;28;20537;-81
2024/02/29 00:10:06;;;;;;;28.90;19.97;;;5.60;99.90;;;;;;5059160;28;20531;-82
2024/02/29 00:12:35;;;;;;;29.30;19.40;;;5.60;99.90;;;;;;5057419;28;20478;-82
2024/02/29 00:15:03;;;;;;;26.23;18.10;;;5.70;99.90;;;;;;5058909;28;20511;-79
2024/02/29 00:17:33;;;;;;;30.67;19.63;;;5.80;99.90;;;;;;5057796;28;20518;-81
2024/02/29 00:20:01;;;;;;;27.80;19.33;;;5.80;99.90;;;;;;5058527;28;20475;-82
2024/02/29 00:22:29;;;;;;;24.03;16.93;;;5.70;99.90;;;;;;5060904;28;20463;-81
2024/02/29 00:24:57;;;;;;;27.23;17.73;;;5.70;99.90;;;;;;5058035;28;20468;-81
2024/02/29 00:27:26;;;;;;;29.97;21.03;;;5.60;99.90;;;;;;5059477;28;20454;-81
2024/02/29 00:29:54;;;;;;;30.87;20.50;;;5.60;99.90;;;;;;5061462;28;20471;-80
2024/02/29 00:32:22;;;;;;;30.20;18.37;;;5.50;99.90;;;;;;5068328;28;20451;-81
2024/02/29 00:34:52;;;;;;;25.93;17.90;;;5.40;99.90;;;;;;5068951;28;20485;-80
2024/02/29 00:37:20;;;;;;;28.40;18.67;;;5.50;99.90;;;;;;5058891;28;20509;-80
2024/02/29 00:39:48;;;;;;;25.40;18.07;;;5.50;99.90;;;;;;5063121;28;20444;-80
2024/02/29 00:42:16;;;;;;;29.40;18.80;;;5.50;99.90;;;;;;5058629;28;20658;-82
2024/02/29 00:44:45;;;;;;;28.80;18.63;;;5.40;99.90;;;;;;5058171;28;20467;-80
2024/02/29 00:47:13;;;;;;;29.60;18.90;;;5.30;99.90;;;;;;5059967;28;20439;-81
2024/02/29 00:49:41;;;;;;;25.90;18.90;;;5.30;99.90;;;;;;5062586;28;20546;-83
2024/02/29 00:52:11;;;;;;;27.50;18.83;;;5.20;99.90;;;;;;5062929;28;20536;-82
2024/02/29 00:54:39;;;;;;;29.33;20.23;;;5.30;99.90;;;;;;5058641;28;20554;-81
2024/02/29 00:57:07;;;;;;;27.73;19.37;;;5.20;99.90;;;;;;5062446;28;20442;-81
2024/02/29 00:59:35;;;;;;;30.57;21.00;;;5.10;99.90;;;;;;5062136;28;21408;-80
2024/02/29 01:02:04;;;;;;;28.07;19.43;;;5.10;99.90;;;;;;5057782;28;20435;-81
2024/02/29 01:04:32;;;;;;;26.17;20.33;;;5.20;99.90;;;;;;5061373;28;20563;-82
2024/02/29 01:07:00;;;;;;;28.10;18.87;;;5.30;99.90;;;;;;5062006;28;20444;-82
2024/02/29 01:09:30;;;;;;;27.13;18.80;;;5.30;99.90;;;;;;5058199;28;20502;-80
2024/02/29 01:11:59;;;;;;;31.40;18.50;;;5.30;99.90;;;;;;5057187;28;20481;-82
2024/02/29 01:14:27;;;;;;;31.50;20.20;;;5.30;99.90;;;;;;5059065;28;20508;-82
2024/02/29 01:16:56;;;;;;;25.33;18.57;;;5.30;99.90;;;;;;5066726;28;20523;-81
2024/02/29 01:19:25;;;;;;;31.50;20.33;;;5.30;99.90;;;;;;5059503;28;20464;-81
2024/02/29 01:21:53;;;;;;;29.97;19.87;;;5.30;99.90;;;;;;5053379;28;20439;-80
2024/02/29 01:24:23;;;;;;;26.43;18.57;;;5.20;99.90;;;;;;5057041;28;20468;-81
2024/02/29 01:26:53;;;;;;;25.87;17.90;;;5.20;99.90;;;;;;5055707;28;20482;-82
2024/02/29 01:29:22;;;;;;;28.07;19.77;;;5.10;99.90;;;;;;5056226;28;20486;-82
2024/02/29 01:31:50;;;;;;;29.33;19.13;;;5.00;99.90;;;;;;5054790;28;20466;-81
2024/02/29 01:34:19;;;;;;;31.07;18.80;;;5.00;99.90;;;;;;5055156;28;20581;-83
2024/02/29 01:36:47;;;;;;;28.20;18.90;;;5.10;99.90;;;;;;5059609;28;20452;-82
2024/02/29 01:39:16;;;;;;;29.33;18.93;;;5.00;99.90;;;;;;5061229;28;20448;-82
2024/02/29 01:41:44;;;;;;;29.40;18.20;;;5.10;99.90;;;;;;5057879;28;20444;-80
2024/02/29 01:44:13;;;;;;;23.90;17.03;;;5.10;99.90;;;;;;5056085;28;20556;-80
2024/02/29 01:46:42;;;;;;;23.37;18.40;;;5.10;99.90;;;;;;5062899;28;20492;-80
2024/02/29 01:49:12;;;;;;;27.10;18.10;;;5.00;99.90;;;;;;5052790;28;20454;-79
2024/02/29 01:51:41;;;;;;;28.83;18.50;;;4.80;99.90;;;;;;5065969;28;20479;-78
2024/02/29 01:54:09;;;;;;;23.83;17.17;;;4.90;99.90;;;;;;5066914;28;20544;-81
2024/02/29 01:56:38;;;;;;;26.47;17.30;;;4.80;99.90;;;;;;5063760;28;20455;-81
2024/02/29 01:59:07;;;;;;;22.87;17.33;;;4.70;99.90;;;;;;5063525;28;20466;-79
2024/02/29 02:01:37;;;;;;;31.20;19.63;;;4.70;99.90;;;;;;5068286;28;20526;-81
2024/02/29 02:04:05;;;;;;;27.13;18.47;;;4.80;99.90;;;;;;5064731;28;20938;-82
2024/02/29 02:06:34;;;;;;;24.17;16.17;;;4.80;99.90;;;;;;5060030;28;20448;-81
2024/02/29 02:09:02;;;;;;;26.70;19.70;;;4.90;99.90;;;;;;5056327;28;20456;-81
2024/02/29 02:11:30;;;;;;;29.67;17.70;;;4.80;99.90;;;;;;5060786;28;20563;-80
2024/02/29 02:13:59;;;;;;;27.00;18.43;;;4.80;99.90;;;;;;5062401;28;20526;-81
2024/02/29 02:16:28;;;;;;;28.60;18.20;;;4.80;99.90;;;;;;5060423;28;20577;-82
2024/02/29 02:18:57;;;;;;;27.73;18.87;;;4.80;99.90;;;;;;5060981;28;20515;-82
2024/02/29 02:21:27;;;;;;;28.97;19.07;;;4.80;99.90;;;;;;5064605;28;20950;-82
2024/02/29 02:23:55;;;;;;;29.87;20.07;;;4.80;99.90;;;;;;5060087;28;20545;-82
2024/02/29 02:26:23;;;;;;;29.03;19.97;;;4.80;99.90;;;;;;5058471;28;20487;-82
2024/02/29 02:28:51;;;;;;;29.57;18.20;;;4.90;99.90;;;;;;5056678;28;20475;-83
2024/02/29 02:31:20;;;;;;;27.37;17.73;;;4.90;99.90;;;;;;5055763;28;20484;-82
2024/02/29 02:33:48;;;;;;;26.93;17.63;;;4.90;99.90;;;;;;5060727;28;20540;-81
2024/02/29 02:36:16;;;;;;;23.00;16.60;;;5.00;99.90;;;;;;5063441;28;20521;-81
2024/02/29 02:38:45;;;;;;;25.97;17.77;;;4.80;99.90;;;;;;5061390;28;20451;-80
2024/02/29 02:41:14;;;;;;;26.83;18.60;;;4.80;99.90;;;;;;5063410;28;20450;-82
2024/02/29 02:43:44;;;;;;;26.10;16.97;;;4.80;99.90;;;;;;5060877;28;20508;-81
2024/02/29 02:46:12;;;;;;;26.00;17.53;;;4.70;99.90;;;;;;5061244;28;20964;-80
2024/02/29 02:48:41;;;;;;;33.70;18.57;;;4.60;99.90;;;;;;5061367;28;20448;-82
2024/02/29 02:51:09;;;;;;;33.20;19.87;;;4.60;99.90;;;;;;5060889;28;20614;-80
2024/02/29 02:53:37;;;;;;;28.57;19.80;;;4.50;99.90;;;;;;5059597;28;20451;-80
2024/02/29 02:56:07;;;;;;;33.17;19.23;;;4.50;99.90;;;;;;5057718;28;20451;-83
2024/02/29 02:58:35;;;;;;;31.03;20.17;;;4.70;1.00;;;;;;5061276;28;20451;-83
2024/02/29 03:01:04;;;;;;;28.93;18.60;;;4.80;99.90;;;;;;5059045;28;20463;-80
2024/02/29 03:03:32;;;;;;;31.97;21.27;;;4.70;99.90;;;;;;5060915;28;20494;-82
2024/02/29 03:06:00;;;;;;;27.80;19.47;;;4.70;99.90;;;;;;5059489;28;20471;-80
2024/02/29 03:08:29;;;;;;;27.87;19.73;;;4.70;99.90;;;;;;5065158;28;20449;-80
2024/02/29 03:10:57;;;;;;;25.50;18.80;;;4.80;99.90;;;;;;5060675;28;20472;-80
2024/02/29 03:13:27;;;;;;;31.10;19.60;;;4.80;99.90;;;;;;5061060;28;20465;-81
2024/02/29 03:15:55;;;;;;;28.47;18.40;;;4.80;99.90;;;;;;5060240;28;20541;-81
2024/02/29 03:18:23;;;;;;;27.20;18.70;;;4.70;99.90;;;;;;5059659;28;20473;-80
2024/02/29 03:20:51;;;;;;;35.30;19.70;;;4.60;99.90;;;;;;5057120;28;20478;-80
2024/02/29 03:23:20;;;;;;;32.87;19.00;;;4.60;99.90;;;;;;5062926;28;20460;-82
2024/02/29 03:25:48;;;;;;;27.50;18.00;;;4.50;99.90;;;;;;5069350;28;20484;-81
2024/02/29 03:28:16;;;;;;;25.50;17.73;;;4.50;99.90;;;;;;5063408;28;20451;-80
2024/02/29 03:30:46;;;;;;;29.07;19.57;;;4.50;99.90;;;;;;5055199;28;20480;-81
2024/02/29 03:33:15;;;;;;;27.37;16.83;;;4.50;99.90;;;;;;5059836;28;20807;-81
2024/02/29 03:35:43;;;;;;;25.83;17.23;;;4.60;99.90;;;;;;5063106;28;20479;-80
2024/02/29 03:38:12;;;;;;;29.43;18.63;;;4.60;99.90;;;;;;5060154;28;20941;-80
2024/02/29 03:40:40;;;;;;;33.70;18.90;;;4.50;99.90;;;;;;5064418;28;21059;-79
2024/02/29 03:43:08;;;;;;;31.27;19.57;;;4.40;99.90;;;;;;5061166;28;20544;-80
2024/02/29 03:45:36;;;;;;;30.87;20.27;;;4.40;99.90;;;;;;5059046;28;20475;-83
2024/02/29 03:48:07;;;;;;;29.33;19.00;;;4.30;99.90;;;;;;5054975;28;20993;-82
2024/02/29 03:50:35;;;;;;;33.80;20.60;;;4.40;99.90;;;;;;5058485;28;20455;-78
2024/02/29 03:53:04;;;;;;;31.47;19.57;;;4.50;99.90;;;;;;5056538;28;20450;-80
2024/02/29 03:55:32;;;;;;;31.63;18.60;;;4.50;99.90;;;;;;5058468;28;20475;-79
2024/02/29 03:58:00;;;;;;;29.20;19.17;;;4.50;99.90;;;;;;5060542;28;20486;-81
2024/02/29 04:00:28;;;;;;;33.43;21.40;;;4.40;99.90;;;;;;5057455;28;20454;-82
2024/02/29 04:02:57;;;;;;;27.97;20.03;;;4.40;99.90;;;;;;5060532;28;20458;-81
2024/02/29 04:05:29;;;;;;;24.93;17.93;;;4.50;99.90;;;;;;5063514;28;20474;-81
2024/02/29 04:08:00;;;;;;;31.23;20.00;;;4.50;99.90;;;;;;5059304;28;20795;-83
2024/02/29 04:10:28;;;;;;;33.37;21.20;;;4.40;99.90;;;;;;5062026;28;20510;-84
2024/02/29 04:12:58;;;;;;;39.27;21.47;;;4.40;99.90;;;;;;5063183;28;20482;-81
2024/02/29 04:15:26;;;;;;;37.07;21.03;;;4.40;99.90;;;;;;5069519;28;20538;-82
2024/02/29 04:17:54;;;;;;;34.17;21.23;;;4.40;99.90;;;;;;5064171;28;20458;-81
2024/02/29 04:20:22;;;;;;;31.53;19.80;;;4.50;99.90;;;;;;5065783;28;20531;-83
2024/02/29 04:22:52;;;;;;;35.03;21.50;;;4.40;99.90;;;;;;5059421;28;20431;-79
2024/02/29 04:25:22;;;;;;;35.80;21.37;;;4.40;99.90;;;;;;5056283;28;20475;-79
2024/02/29 04:27:51;;;;;;;34.03;20.60;;;4.30;99.90;;;;;;5053747;28;20447;-81
2024/02/29 04:30:20;;;;;;;34.30;21.13;;;4.20;99.90;;;;;;5053890;28;20475;-81
2024/02/29 04:32:48;;;;;;;32.70;20.47;;;4.20;99.90;;;;;;5053907;28;21107;-79
2024/02/29 04:35:16;;;;;;;33.87;21.77;;;4.20;99.90;;;;;;5056425;28;20463;-80
2024/02/29 04:37:44;;;;;;;32.67;19.43;;;4.10;99.90;;;;;;5056976;28;20453;-79
2024/02/29 04:40:14;;;;;;;32.20;19.13;;;4.10;99.90;;;;;;5056590;28;20490;-81
2024/02/29 04:42:43;;;;;;;30.38;20.23;;;4.20;99.90;;;;;;5056247;28;20454;-79
2024/02/29 04:45:11;;;;;;;32.67;19.63;;;4.30;99.90;;;;;;5056738;28;20216;-80
2024/02/29 04:47:40;;;;;;;34.07;22.40;;;4.30;99.90;;;;;;5054155;28;20493;-80
2024/02/29 04:50:09;;;;;;;33.47;21.00;;;4.30;99.90;;;;;;5056068;28;20465;-78
2024/02/29 04:52:37;;;;;;;29.13;19.27;;;4.30;99.90;;;;;;5060274;28;20463;-80
2024/02/29 04:55:06;;;;;;;38.90;22.73;;;4.30;99.90;;;;;;5058733;28;20464;-79
2024/02/29 04:57:36;;;;;;;29.53;19.87;;;4.30;99.90;;;;;;5056195;28;21034;-79
2024/02/29 05:00:06;;;;;;;33.77;20.23;;;4.30;99.90;;;;;;5056546;28;20449;-78
2024/02/29 05:02:34;;;;;;;32.23;20.53;;;4.30;99.90;;;;;;5052668;28;20504;-78
2024/02/29 05:05:03;;;;;;;33.33;20.40;;;4.20;99.90;;;;;;5055693;28;20482;-79
2024/02/29 05:07:32;;;;;;;27.93;20.00;;;4.10;99.90;;;;;;5052831;28;20450;-78
2024/02/29 05:10:00;;;;;;;34.08;20.85;;;4.10;99.90;;;;;;5053512;28;20439;-80
2024/02/29 05:12:28;;;;;;;35.03;20.27;;;4.10;99.90;;;;;;5061081;28;20221;-80
2024/02/29 05:14:59;;;;;;;33.93;20.17;;;4.20;99.90;;;;;;5059275;28;20520;-79
2024/02/29 05:17:28;;;;;;;30.02;21.55;;;4.10;99.90;;;;;;5054570;28;20455;-81
2024/02/29 05:19:58;;;;;;;34.47;20.80;;;4.10;99.90;;;;;;5054752;28;20589;-80
2024/02/29 05:22:27;;;;;;;32.30;21.00;;;4.20;99.90;;;;;;5057666;28;20529;-80
2024/02/29 05:24:56;;;;;;;31.87;20.30;;;4.30;99.90;;;;;;5058764;28;20475;-79
2024/02/29 05:27:29;;;;;;;31.60;20.80;;;4.30;99.90;;;;;;5061941;28;20826;-80
2024/02/29 05:30:01;;;;;;;36.83;22.67;;;4.30;99.90;;;;;;5059669;28;20446;-81
2024/02/29 05:32:29;;;;;;;32.95;19.65;;;4.30;99.90;;;;;;5057858;28;20518;-79
2024/02/29 05:34:57;;;;;;;28.17;19.40;;;4.20;99.90;;;;;;5063471;28;20212;-78
2024/02/29 05:37:25;;;;;;;32.83;21.37;;;4.30;99.90;;;;;;5057319;28;20962;-78
2024/02/29 05:39:54;;;;;;;33.80;20.33;;;4.30;99.90;;;;;;5058410;28;20441;-81
2024/02/29 05:42:24;;;;;;;32.53;21.70;;;4.50;1.00;;;;;;5059509;28;20447;-78
2024/02/29 05:44:52;;;;;;;34.30;23.00;;;4.50;1.00;;;;;;5060132;28;20455;-79
2024/02/29 05:47:22;;;;;;;30.10;20.10;;;4.60;1.00;;;;;;5056420;28;20451;-78
2024/02/29 05:49:50;;;;;;;34.97;20.47;;;4.70;56.70;;;;;;5052952;28;21532;-78
2024/02/29 05:52:18;;;;;;;35.40;20.90;;;4.80;99.90;;;;;;5058895;28;20464;-80
2024/02/29 05:54:46;;;;;;;31.67;20.60;;;4.90;83.70;;;;;;5057269;28;20500;-79
2024/02/29 05:57:15;;;;;;;31.40;20.40;;;5.00;49.10;;;;;;5057714;28;20555;-80
2024/02/29 05:59:43;;;;;;;34.90;20.30;;;5.00;1.00;;;;;;5057626;28;20451;-80
2024/02/29 06:02:11;;;;;;;34.87;21.53;;;4.90;1.00;;;;;;5060974;28;20450;-80
2024/02/29 06:04:41;;;;;;;27.00;19.23;;;4.80;1.00;;;;;;5058339;28;20475;-80
2024/02/29 06:07:09;;;;;;;30.97;21.63;;;4.90;1.00;;;;;;5056170;28;20459;-81
2024/02/29 06:09:38;;;;;;;34.00;21.40;;;4.80;1.00;;;;;;5058129;28;20545;-79
2024/02/29 06:12:07;;;;;;;31.00;20.83;;;4.80;1.00;;;;;;5058027;28;20500;-78
2024/02/29 06:14:35;;;;;;;35.30;21.00;;;4.70;1.00;;;;;;5057021;28;21241;-82
2024/02/29 06:17:04;;;;;;;28.70;19.60;;;4.60;1.00;;;;;;5059747;28;20447;-79
2024/02/29 06:19:34;;;;;;;34.03;20.20;;;4.60;1.00;;;;;;5056129;28;20462;-78
2024/02/29 06:22:04;;;;;;;32.83;22.00;;;4.60;1.00;;;;;;5055635;28;21230;-79
2024/02/29 06:24:33;;;;;;;33.27;21.43;;;4.60;1.00;;;;;;5056102;28;20225;-79
2024/02/29 06:27:01;;;;;;;34.80;21.13;;;4.60;1.00;;;;;;5048552;28;20489;-78
2024/02/29 06:29:29;;;;;;;35.50;21.47;;;4.60;1.00;;;;;;5048241;28;20442;-78
2024/02/29 06:31:58;;;;;;;34.27;22.07;;;4.60;1.00;;;;;;5057337;28;20451;-82
2024/02/29 06:34:26;;;;;;;29.40;20.33;;;4.60;1.00;;;;;;5057043;28;20554;-79
2024/02/29 06:36:54;;;;;;;31.77;20.20;;;4.70;1.00;;;;;;5052875;28;20454;-79
2024/02/29 06:39:24;;;;;;;30.30;21.23;;;4.80;1.00;;;;;;5057641;28;20466;-79
2024/02/29 06:41:52;;;;;;;31.63;21.67;;;4.70;1.00;;;;;;5054371;28;20540;-80
2024/02/29 06:44:20;;;;;;;30.87;21.80;;;4.70;1.00;;;;;;5057243;28;20468;-79
2024/02/29 06:46:49;;;;;;;36.50;20.83;;;4.80;1.00;;;;;;5055435;28;20451;-79
2024/02/29 06:49:20;;;;;;;32.60;20.80;;;4.80;1.00;;;;;;5054706;28;20467;-79
2024/02/29 06:51:48;;;;;;;34.67;21.77;;;4.80;1.00;;;;;;5058972;28;20458;-78
2024/02/29 06:54:16;;;;;;;35.40;20.53;;;4.80;99.90;;;;;;5055094;28;20491;-78
2024/02/29 06:56:47;;;;;;;33.93;21.70;;;4.80;99.90;;;;;;5058906;28;20531;-78
2024/02/29 06:59:15;;;;;;;29.90;20.10;;;4.80;1.00;;;;;;5056484;28;20463;-78
2024/02/29 07:01:43;;;;;;;32.33;20.77;;;4.90;1.00;;;;;;5056699;28;20476;-78
2024/02/29 07:04:12;;;;;;;32.13;20.40;;;4.90;99.90;;;;;;5060494;28;20524;-79
2024/02/29 07:06:40;;;;;;;35.77;22.10;;;4.90;99.90;;;;;;5055920;28;20482;-79
2024/02/29 07:09:08;;;;;;;33.70;22.33;;;4.90;1.00;;;;;;5059044;28;21204;-78
2024/02/29 07:11:38;;;;;;;35.37;23.67;;;4.90;1.00;;;;;;5058415;28;20453;-78
2024/02/29 07:14:08;;;;;;;34.20;22.20;;;5.00;1.00;;;;;;5055188;28;20479;-77
2024/02/29 07:16:38;;;;;;;34.40;23.23;;;5.10;99.90;;;;;;5060217;28;20450;-77
2024/02/29 07:19:06;;;;;;;34.97;22.00;;;5.20;99.90;;;;;;5055536;28;20532;-77
2024/02/29 07:21:35;;;;;;;32.93;21.50;;;5.20;99.90;;;;;;5058754;28;20456;-77
2024/02/29 07:24:05;;;;;;;31.47;21.50;;;5.20;99.90;;;;;;5055710;28;20480;-78
2024/02/29 07:26:33;;;;;;;31.90;21.07;;;5.20;99.90;;;;;;5052376;28;20494;-79
2024/02/29 07:29:03;;;;;;;37.13;21.50;;;5.20;99.90;;;;;;5056741;28;20583;-79
2024/02/29 07:31:33;;;;;;;33.87;21.67;;;5.30;99.90;;;;;;5055212;28;20454;-79
2024/02/29 07:34:01;;;;;;;31.90;20.57;;;5.30;99.90;;;;;;5056433;28;20566;-79
2024/02/29 07:36:29;;;;;;;31.00;20.20;;;5.30;99.90;;;;;;5060250;28;20529;-80
2024/02/29 07:38:57;;;;;;;34.37;22.60;;;5.30;1.00;;;;;;5052238;28;20451;-79
2024/02/29 07:41:26;;;;;;;38.30;22.10;;;5.40;1.00;;;;;;5058218;28;20443;-79
2024/02/29 07:43:55;;;;;;;32.27;21.80;;;5.50;1.00;;;;;;5053057;28;20444;-79
2024/02/29 07:46:23;;;;;;;33.00;20.90;;;5.70;1.00;;;;;;5057393;28;20514;-78
2024/02/29 07:48:53;;;;;;;33.13;21.53;;;5.90;1.00;;;;;;5056474;28;20542;-77
2024/02/29 07:51:21;;;;;;;33.73;20.23;;;6.00;1.00;;;;;;5057964;28;20486;-78
2024/02/29 07:53:49;;;;;;;31.03;20.43;;;6.30;1.00;;;;;;5060918;28;20462;-79
2024/02/29 07:56:18;;;;;;;34.20;22.13;;;6.40;1.00;;;;;;5060502;28;20466;-79
2024/02/29 07:58:46;;;;;;;30.47;20.17;;;6.60;1.00;;;;;;5048950;28;20616;-77
2024/02/29 08:01:15;;;;;;;31.97;19.27;;;6.70;99.90;;;;;;5050613;28;20502;-78
2024/02/29 08:03:43;;;;;;;28.80;19.53;;;6.90;99.90;;;;;;5052669;28;20464;-80
2024/02/29 08:06:13;;;;;;;27.60;19.30;;;7.10;99.90;;;;;;5054866;28;20456;-80
2024/02/29 08:08:41;;;;;;;31.40;20.70;;;7.30;99.90;;;;;;5050797;28;20450;-80
2024/02/29 08:11:09;;;;;;;27.60;19.43;;;7.50;99.90;;;;;;5058111;28;20544;-80
2024/02/29 08:13:37;;;;;;;30.50;19.30;;;7.70;99.90;;;;;;5056576;28;20582;-80
2024/02/29 08:16:06;;;;;;;34.40;19.80;;;7.90;99.90;;;;;;5056587;28;20479;-79
2024/02/29 08:18:34;;;;;;;30.97;20.57;;;8.20;99.90;;;;;;5052419;28;20466;-79
2024/02/29 08:21:04;;;;;;;33.43;20.47;;;8.40;99.90;;;;;;5054741;28;20529;-81
2024/02/29 08:23:34;;;;;;;28.80;19.40;;;8.70;99.90;;;;;;5055682;28;20454;-78
2024/02/29 08:26:08;;;;;;;30.80;20.70;;;9.00;99.90;;;;;;5054011;28;20474;-77
2024/02/29 08:28:37;;;;;;;27.73;18.93;;;9.40;99.90;;;;;;5052914;28;21043;-80
2024/02/29 08:31:05;;;;;;;30.70;20.60;;;9.70;99.90;;;;;;5054893;28;20538;-80
2024/02/29 08:33:34;;;;;;;24.93;18.03;;;10.10;99.90;;;;;;5053286;28;20470;-77
2024/02/29 08:36:03;;;;;;;28.23;19.47;;;10.60;99.90;;;;;;5057828;28;20675;-80
2024/02/29 08:38:34;;;;;;;27.60;20.00;;;11.00;99.90;;;;;;5054186;28;20463;-80
2024/02/29 08:41:04;;;;;;;28.80;21.40;;;11.20;99.90;;;;;;5056710;28;20969;-80
2024/02/29 08:43:32;;;;;;;25.00;19.20;;;11.80;99.90;;;;;;5056688;28;20507;-79
2024/02/29 08:46:01;;;;;;;29.40;18.67;;;12.10;99.90;;;;;;5055362;28;20548;-79
2024/02/29 08:48:29;;;;;;;24.50;18.63;;;12.30;99.90;;;;;;5054628;28;20883;-77
2024/02/29 08:50:57;;;;;;;25.20;17.80;;;12.70;99.90;;;;;;5057437;28;20555;-78
2024/02/29 08:53:25;;;;;;;31.03;19.80;;;13.00;99.90;;;;;;5052877;28;20454;-77
2024/02/29 08:55:55;;;;;;;19.20;16.63;;;13.10;99.90;;;;;;5055544;28;20839;-78
2024/02/29 08:58:23;;;;;;;27.83;19.33;;;13.30;99.90;;;;;;5052584;28;20489;-80
2024/02/29 09:00:51;;;;;;;25.60;18.87;;;13.70;99.90;;;;;;5057239;28;20448;-80
2024/02/29 09:03:20;;;;;;;29.33;18.83;;;14.00;99.90;;;;;;5053937;28;21031;-80
2024/02/29 09:05:48;;;;;;;24.73;17.93;;;14.30;99.90;;;;;;5054414;28;20600;-79
2024/02/29 09:08:17;;;;;;;27.73;17.93;;;14.30;99.90;;;;;;5056607;28;20461;-79
2024/02/29 09:10:49;;;;;;;23.00;17.67;;;14.60;99.90;;;;;;5052269;28;20439;-80
2024/02/29 09:13:19;;;;;;;22.90;17.90;;;15.00;99.90;;;;;;5057722;28;20208;-80
2024/02/29 09:16:02;;;;;;;23.03;17.30;;;15.60;99.90;;;;;;5053635;28;20457;-81
2024/02/29 09:18:30;;;;;;;25.17;18.00;;;16.10;99.90;;;;;;5054399;28;20447;-80
2024/02/29 09:20:58;;;;;;;26.80;17.93;;;16.10;99.90;;;;;;5050388;28;21140;-81
2024/02/29 09:23:28;;;;;;;25.07;17.27;;;16.00;99.90;;;;;;5054684;28;20983;-81
2024/02/29 09:25:57;;;;;;;26.80;18.03;;;16.60;99.90;;;;;;5046520;28;20877;-80
2024/02/29 09:28:26;;;;;;;20.73;16.80;;;16.70;99.90;;;;;;5053758;28;20449;-78
2024/02/29 09:30:55;;;;;;;21.20;16.70;;;17.00;99.90;;;;;;5057844;28;20443;-81
2024/02/29 09:33:24;;;;;;;20.83;15.27;;;17.50;99.90;;;;;;5051011;28;20491;-80
2024/02/29 09:35:57;;;;;;;22.83;17.07;;;17.60;99.90;;;;;;5055590;28;20636;-79
2024/02/29 09:38:27;;;;;;;24.33;17.87;;;17.80;99.90;;;;;;5054114;28;20481;-80
2024/02/29 09:40:55;;;;;;;24.00;16.70;;;18.20;99.90;;;;;;5053262;28;20542;-81
2024/02/29 09:43:44;;;;;;;23.90;17.90;;;18.40;99.90;;;;;;5051092;28;20454;-80
2024/02/29 09:46:12;;;;;;;23.90;17.33;;;18.70;99.90;;;;;;5055501;28;20455;-80
2024/02/29 09:48:41;;;;;;;24.33;19.07;;;19.40;99.90;;;;;;5054137;28;20458;-78
2024/02/29 09:51:14;;;;;;;22.97;16.90;;;19.70;99.90;;;;;;5054900;28;20520;-80
2024/02/29 09:53:44;;;;;;;26.10;18.47;;;20.00;99.90;;;;;;5056804;28;20931;-81
2024/02/29 09:56:13;;;;;;;24.97;17.67;;;20.20;99.90;;;;;;5049504;28;20866;-79
2024/02/29 09:58:43;;;;;;;21.23;17.20;;;20.70;99.90;;;;;;5057260;28;20982;-79
2024/02/29 10:01:12;;;;;;;21.23;16.97;;;20.90;99.90;;;;;;5061919;28;20557;-79
2024/02/29 10:03:41;;;;;;;21.97;18.20;;;20.80;99.90;;;;;;5052741;28;20463;-80
2024/02/29 10:06:11;;;;;;;24.30;17.80;;;20.40;99.90;;;;;;5051664;28;20463;-81
2024/02/29 10:08:39;;;;;;;23.33;17.13;;;20.30;99.90;;;;;;5052781;28;20447;-80
2024/02/29 10:11:08;;;;;;;22.37;18.13;;;20.10;99.90;;;;;;5051724;28;21074;-78
2024/02/29 10:13:38;;;;;;;19.20;16.07;;;20.00;99.90;;;;;;5057760;28;20447;-81
2024/02/29 10:16:09;;;;;;;20.67;17.37;;;20.10;99.90;;;;;;5056909;28;20570;-80
2024/02/29 10:18:38;;;;;;;20.83;17.43;;;20.20;99.90;;;;;;5060578;28;20447;-79
2024/02/29 10:21:11;;;;;;;22.20;17.90;;;20.50;99.90;;;;;;5058898;28;20566;-81
2024/02/29 10:23:40;;;;;;;21.60;17.77;;;21.00;99.90;;;;;;5058658;28;20498;-80
2024/02/29 10:26:09;;;;;;;22.93;17.53;;;21.30;99.90;;;;;;5054713;28;20458;-79
2024/02/29 10:28:37;;;;;;;22.33;16.63;;;21.60;99.90;;;;;;5062228;28;20454;-80
2024/02/29 10:31:06;;;;;;;23.50;17.73;;;22.00;99.90;;;;;;5057754;28;20503;-80
2024/02/29 10:33:37;;;;;;;21.80;18.67;;;22.60;99.90;;;;;;5054956;28;20448;-82
2024/02/29 10:36:12;;;;;;;22.37;18.10;;;23.00;99.90;;;;;;5054103;28;20478;-81
2024/02/29 10:38:40;;;;;;;21.43;18.40;;;23.00;99.90;;;;;;5062567;28;20529;-80
2024/02/29 10:41:10;;;;;;;18.97;16.47;;;23.30;99.90;;;;;;5054911;28;20531;-80
2024/02/29 10:43:39;;;;;;;18.73;16.30;;;24.10;99.90;;;;;;5058177;28;20948;-81
2024/02/29 10:46:09;;;;;;;19.63;17.30;;;25.00;99.90;;;;;;5060310;28;20486;-81
2024/02/29 10:48:48;;;;;;;18.87;16.87;;;26.00;99.90;;;;;;5057735;28;20456;-79
2024/02/29 10:51:23;;;;;;;19.77;17.57;;;26.50;99.90;;;;;;5055753;28;20457;-78
2024/02/29 10:54:03;;;;;;;19.33;17.30;;;27.60;99.90;;;;;;5060938;28;20443;-79
2024/02/29 10:56:33;;;;;;;19.37;17.00;;;27.80;99.90;;;;;;5054217;28;20877;-81
2024/02/29 10:59:06;;;;;;;20.13;18.07;;;27.80;99.90;;;;;;5059427;28;20454;-81
2024/02/29 11:01:36;;;;;;;19.43;17.33;;;26.60;99.90;;;;;;5052688;28;20455;-82
2024/02/29 11:04:07;;;;;;;19.30;17.20;;;27.80;99.90;;;;;;5056799;28;20477;-79
2024/02/29 11:06:38;;;;;;;21.50;17.20;;;28.50;99.90;;;;;;5057567;28;20528;-79
2024/02/29 11:09:09;;;;;;;20.77;16.60;;;25.90;99.90;;;;;;5058777;28;20455;-79
2024/02/29 11:11:38;;;;;;;17.90;16.00;;;26.30;99.90;;;;;;5048795;28;20521;-81
2024/02/29 11:14:10;;;;;;;20.40;17.17;;;27.60;99.90;;;;;;5057013;28;20500;-81
2024/02/29 11:16:40;;;;;;;18.87;16.80;;;27.90;99.90;;;;;;5056402;28;20467;-83
2024/02/29 11:19:14;;;;;;;19.00;16.47;;;28.80;99.90;;;;;;5058277;28;20478;-82
2024/02/29 11:21:42;;;;;;;20.10;18.10;;;28.80;99.90;;;;;;5054856;28;20478;-80
2024/02/29 11:24:17;;;;;;;18.87;16.57;;;28.70;99.90;;;;;;5058277;28;20475;-81
2024/02/29 11:26:45;;;;;;;17.63;15.90;;;28.80;99.90;;;;;;5054353;28;20916;-80
2024/02/29 11:29:15;;;;;;;15.17;13.60;;;29.20;99.90;;;;;;5056096;28;20459;-82
2024/02/29 11:31:46;;;;;;;15.40;13.60;;;29.30;99.90;;;;;;5059552;28;20550;-80
2024/02/29 11:34:16;;;;;;;16.10;14.07;;;29.30;99.90;;;;;;5057845;28;20471;-82
2024/02/29 11:36:47;;;;;;;17.90;15.67;;;28.90;99.90;;;;;;5056140;28;21119;-80
2024/02/29 11:39:17;;;;;;;16.97;14.67;;;27.90;99.90;;;;;;5057867;28;20450;-81
2024/02/29 11:41:45;;;;;;;16.40;14.67;;;25.70;99.90;;;;;;5055146;28;20878;-79
2024/02/29 11:44:14;;;;;;;17.23;15.33;;;23.00;99.90;;;;;;5057022;28;20892;-80
2024/02/29 11:46:45;;;;;;;19.30;16.67;;;21.80;99.90;;;;;;5059525;28;20478;-80
2024/02/29 11:49:14;;;;;;;14.90;12.70;;;20.40;94.10;;;;;;5055433;28;20964;-80
2024/02/29 11:51:45;;;;;;;15.70;13.33;;;19.60;86.90;;;;;;5059829;28;20469;-79
2024/02/29 11:54:14;;;;;;;14.80;13.17;;;18.90;76.20;;;;;;5058744;28;21228;-82
2024/02/29 11:56:43;;;;;;;18.63;14.37;;;18.20;65.10;;;;;;5056145;28;21071;-78
2024/02/29 11:59:13;;;;;;;19.20;14.83;;;17.90;62.90;;;;;;5055850;28;21307;-79
2024/02/29 12:01:42;;;;;;;17.20;13.80;;;17.70;60.30;;;;;;5055263;28;20538;-79
2024/02/29 12:04:12;;;;;;;19.87;14.10;;;17.40;56.40;;;;;;5053118;28;20836;-79
2024/02/29 12:06:40;;;;;;;17.93;13.27;;;17.30;58.30;;;;;;5053502;28;20848;-76
2024/02/29 12:09:12;;;;;;;14.67;13.17;;;17.20;55.60;;;;;;5054170;28;20459;-79
2024/02/29 12:11:41;;;;;;;13.87;12.37;;;17.00;54.10;;;;;;5054464;28;20456;-78
2024/02/29 12:14:09;;;;;;;16.63;12.20;;;17.00;54.50;;;;;;5054030;28;20466;-77
2024/02/29 12:16:41;;;;;;;16.43;11.90;;;17.10;54.80;;;;;;5057425;28;20471;-79
2024/02/29 12:19:09;;;;;;;15.30;12.57;;;17.00;55.40;;;;;;5054866;28;20541;-80
2024/02/29 12:21:37;;;;;;;17.23;13.83;;;17.20;57.50;;;;;;5057574;28;20447;-79
2024/02/29 12:24:07;;;;;;;18.70;11.53;;;17.10;55.60;;;;;;5054144;28;20447;-81
2024/02/29 12:26:38;;;;;;;15.13;12.07;;;17.10;59.30;;;;;;5057468;28;20517;-79
2024/02/29 12:29:07;;;;;;;13.77;12.27;;;17.20;58.80;;;;;;5051901;28;20468;-77
2024/02/29 12:31:36;;;;;;;13.40;11.90;;;17.20;60.50;;;;;;5056980;28;20994;-79
2024/02/29 12:34:06;;;;;;;14.40;10.30;;;16.90;56.30;;;;;;5056301;28;20462;-79
2024/02/29 12:36:34;;;;;;;14.90;12.07;;;16.80;54.60;;;;;;5055165;28;20475;-80
2024/02/29 12:39:03;;;;;;;16.37;13.60;;;16.50;51.30;;;;;;5058923;28;21020;-80
2024/02/29 12:41:31;;;;;;;14.57;11.30;;;16.60;54.30;;;;;;5057068;28;20459;-79
2024/02/29 12:44:04;;;;;;;13.73;11.30;;;16.50;53.30;;;;;;5052678;28;20450;-80